Time;durP1;ratioP1;P1;durP2;ratioP2;P2;SDS_P1;SDS_P2;PMS_P1;PMS_P2;Temp;Humidity;BMP_temperature;BMP_pressure;BME280_temperature;BME280_humidity;BME280_pressure;Samples;Min_cycle;Max_cycle;Signal;HPM_P1;HPM_P2
2023/04/30 00:02:14;;;;;;;1.70;1.60;;;24.10;58.90;;;;;;5031033;28;20465;-85
2023/04/30 00:04:44;;;;;;;1.83;1.73;;;24.10;58.90;;;;;;5033336;28;20481;-76
2023/04/30 00:07:12;;;;;;;3.93;2.20;;;24.10;58.90;;;;;;5033189;28;20453;-76
2023/04/30 00:09:40;;;;;;;4.30;2.20;;;24.10;58.90;;;;;;5030165;28;20457;-81
2023/04/30 00:12:08;;;;;;;2.07;1.97;;;24.10;58.90;;;;;;5014610;28;20478;-75
2023/04/30 00:14:36;;;;;;;1.97;1.80;;;24.10;58.90;;;;;;5008617;28;20570;-75
2023/04/30 00:17:04;;;;;;;2.20;2.10;;;24.10;58.90;;;;;;5033223;28;20446;-75
2023/04/30 00:19:33;;;;;;;3.50;2.00;;;24.10;58.90;;;;;;5033202;28;20968;-79
2023/04/30 00:22:04;;;;;;;2.20;2.10;;;24.10;58.90;;;;;;5047700;28;20468;-75
2023/04/30 00:24:32;;;;;;;2.30;2.20;;;24.10;58.90;;;;;;5053040;28;20476;-75
2023/04/30 00:27:00;;;;;;;2.40;2.20;;;24.10;58.90;;;;;;5027611;28;20516;-75
2023/04/30 00:29:28;;;;;;;1.90;1.80;;;24.10;58.90;;;;;;5032979;28;20468;-75
2023/04/30 00:32:00;;;;;;;2.13;1.93;;;24.10;58.90;;;;;;5032006;28;20431;-75
2023/04/30 00:34:28;;;;;;;2.50;2.10;;;24.10;58.90;;;;;;5032467;28;20460;-75
2023/04/30 00:36:56;;;;;;;2.00;1.90;;;24.10;58.90;;;;;;5013885;28;20479;-75
2023/04/30 00:39:26;;;;;;;2.13;2.03;;;24.10;58.90;;;;;;5032867;28;20913;-76
2023/04/30 00:41:54;;;;;;;2.03;1.93;;;24.10;58.90;;;;;;5030988;28;20497;-86
2023/04/30 00:44:22;;;;;;;2.00;1.90;;;24.10;58.90;;;;;;5030996;28;20486;-78
2023/04/30 00:46:50;;;;;;;2.10;2.00;;;24.10;58.90;;;;;;5034092;28;20466;-75
2023/04/30 00:49:19;;;;;;;1.83;1.73;;;24.00;58.90;;;;;;5032509;28;20922;-75
2023/04/30 00:51:47;;;;;;;2.10;2.00;;;24.00;58.90;;;;;;5030429;28;21017;-76
2023/04/30 00:54:16;;;;;;;2.10;1.97;;;24.00;58.90;;;;;;5031399;28;20433;-75
2023/04/30 00:56:46;;;;;;;2.50;2.17;;;24.00;58.90;;;;;;5031929;28;21001;-76
2023/04/30 00:59:14;;;;;;;1.90;1.73;;;24.00;58.90;;;;;;5020577;28;20463;-75
2023/04/30 01:01:43;;;;;;;1.87;1.77;;;24.00;59.00;;;;;;4996727;28;20460;-75
2023/04/30 01:04:12;;;;;;;1.40;1.30;;;24.00;59.00;;;;;;5029550;28;20467;-75
2023/04/30 01:06:42;;;;;;;2.10;2.00;;;24.00;59.00;;;;;;5028278;28;20509;-75
2023/04/30 01:09:10;;;;;;;2.00;1.90;;;24.00;59.00;;;;;;5031868;28;20835;-79
2023/04/30 01:11:52;;;;;;;2.00;1.90;;;24.00;59.00;;;;;;5031127;28;20535;-75
2023/04/30 01:14:27;;;;;;;2.10;2.00;;;24.00;59.00;;;;;;5032037;28;20437;-75
2023/04/30 01:17:05;;;;;;;1.90;1.80;;;24.00;59.00;;;;;;5032379;28;20503;-75
2023/04/30 01:19:40;;;;;;;1.97;1.87;;;24.00;59.00;;;;;;5030287;28;20507;-78
2023/04/30 01:22:12;;;;;;;3.30;2.23;;;24.00;59.00;;;;;;5013041;28;20452;-75
2023/04/30 01:24:54;;;;;;;2.03;1.93;;;24.00;59.00;;;;;;5014513;28;20561;-75
2023/04/30 01:27:40;;;;;;;2.50;2.40;;;24.00;59.00;;;;;;5029661;28;20460;-75
2023/04/30 01:30:11;;;;;;;1.80;1.70;;;24.00;59.00;;;;;;5022112;28;20451;-75
2023/04/30 01:32:40;;;;;;;2.00;1.90;;;24.00;59.00;;;;;;5027806;28;20809;-75
2023/04/30 01:35:09;;;;;;;1.83;1.70;;;23.90;59.00;;;;;;5018779;28;20460;-76
2023/04/30 01:37:47;;;;;;;1.57;1.47;;;24.00;59.00;;;;;;5024863;28;21397;-76
2023/04/30 01:40:24;;;;;;;1.83;1.73;;;23.90;59.00;;;;;;5014105;28;20503;-76
2023/04/30 01:43:01;;;;;;;1.57;1.30;;;23.90;59.00;;;;;;5013733;28;20539;-76
2023/04/30 01:45:47;;;;;;;2.60;1.83;;;23.90;59.00;;;;;;5013905;28;20472;-76
2023/04/30 01:48:27;;;;;;;1.93;1.80;;;23.90;59.00;;;;;;5024471;28;21006;-79
2023/04/30 01:51:05;;;;;;;1.43;1.33;;;23.90;59.00;;;;;;5012917;28;20872;-75
2023/04/30 01:53:40;;;;;;;1.60;1.50;;;23.90;59.00;;;;;;5005878;28;20493;-79
2023/04/30 01:56:15;;;;;;;2.03;1.87;;;23.90;59.00;;;;;;5031480;28;20447;-75
2023/04/30 01:58:46;;;;;;;1.67;1.57;;;23.90;59.00;;;;;;5012630;28;20651;-80
2023/04/30 02:01:28;;;;;;;1.70;1.60;;;23.90;59.00;;;;;;5012172;28;20539;-76
2023/04/30 02:03:56;;;;;;;2.13;1.93;;;23.90;59.00;;;;;;5020068;28;20466;-75
2023/04/30 02:06:27;;;;;;;1.70;1.60;;;23.90;59.00;;;;;;5012896;28;20530;-80
2023/04/30 02:09:01;;;;;;;1.67;1.57;;;23.90;59.00;;;;;;5030097;28;20461;-75
2023/04/30 02:11:29;;;;;;;2.23;2.03;;;23.90;59.00;;;;;;5030613;28;20488;-75
2023/04/30 02:13:57;;;;;;;1.70;1.60;;;23.90;59.00;;;;;;5031083;28;20474;-75
2023/04/30 02:16:27;;;;;;;1.47;1.37;;;23.90;59.00;;;;;;5010595;28;20548;-82
2023/04/30 02:18:56;;;;;;;1.63;1.53;;;23.90;59.00;;;;;;5030921;28;20502;-75
2023/04/30 02:21:24;;;;;;;1.50;1.40;;;23.90;59.00;;;;;;5013105;28;20454;-79
2023/04/30 02:23:52;;;;;;;2.00;1.90;;;23.90;59.00;;;;;;5031618;28;20478;-76
2023/04/30 02:26:21;;;;;;;2.13;1.63;;;23.80;59.00;;;;;;5030920;28;20513;-75
2023/04/30 02:28:49;;;;;;;1.80;1.70;;;23.90;59.00;;;;;;5030288;28;20551;-76
2023/04/30 02:31:17;;;;;;;1.90;1.80;;;23.80;59.00;;;;;;5030956;28;20930;-76
2023/04/30 02:33:47;;;;;;;1.67;1.57;;;23.80;59.00;;;;;;5030938;28;21009;-75
2023/04/30 02:36:15;;;;;;;1.63;1.53;;;23.80;59.00;;;;;;5013500;28;20852;-78
2023/04/30 02:38:43;;;;;;;2.43;2.23;;;23.80;59.00;;;;;;5030359;28;20481;-75
2023/04/30 02:41:12;;;;;;;1.40;1.30;;;23.80;59.00;;;;;;5013710;28;20456;-77
2023/04/30 02:43:40;;;;;;;2.03;1.93;;;23.80;59.00;;;;;;5013698;28;21019;-76
2023/04/30 02:46:08;;;;;;;1.80;1.70;;;23.80;59.00;;;;;;5018109;28;20471;-77
2023/04/30 02:48:36;;;;;;;1.70;1.60;;;23.80;59.00;;;;;;5031234;28;20454;-75
2023/04/30 02:51:06;;;;;;;1.60;1.50;;;23.80;59.00;;;;;;5013254;28;20523;-79
2023/04/30 02:53:34;;;;;;;2.00;1.80;;;23.80;59.00;;;;;;5012495;28;20558;-78
2023/04/30 02:56:02;;;;;;;1.80;1.70;;;23.80;59.00;;;;;;5017300;28;20484;-75
2023/04/30 02:58:30;;;;;;;1.43;1.37;;;23.80;59.00;;;;;;5032946;28;21014;-75
2023/04/30 03:00:59;;;;;;;1.90;1.77;;;23.80;59.00;;;;;;5016932;28;20465;-75
2023/04/30 03:03:27;;;;;;;1.33;1.23;;;23.80;59.00;;;;;;5017055;28;20547;-80
2023/04/30 03:05:58;;;;;;;2.10;1.53;;;23.80;59.00;;;;;;5017155;28;20479;-76
2023/04/30 03:08:28;;;;;;;1.60;1.50;;;23.80;59.00;;;;;;5014787;28;20469;-76
2023/04/30 03:10:56;;;;;;;2.07;1.90;;;23.70;59.00;;;;;;5034033;28;20986;-76
2023/04/30 03:13:25;;;;;;;2.20;2.00;;;23.70;59.00;;;;;;5034077;28;20812;-78
2023/04/30 03:15:58;;;;;;;2.00;1.90;;;23.70;59.00;;;;;;5034310;28;20453;-76
2023/04/30 03:18:27;;;;;;;2.00;1.90;;;23.70;59.10;;;;;;5034348;28;20454;-75
2023/04/30 03:20:55;;;;;;;1.50;1.40;;;23.70;59.00;;;;;;5016782;28;20444;-75
2023/04/30 03:23:23;;;;;;;2.30;2.20;;;23.70;59.00;;;;;;5033219;28;20787;-76
2023/04/30 03:25:53;;;;;;;1.83;1.73;;;23.70;59.00;;;;;;5034229;28;20443;-77
2023/04/30 03:28:22;;;;;;;1.40;1.30;;;23.70;59.00;;;;;;5015074;28;20464;-75
2023/04/30 03:30:50;;;;;;;1.97;1.80;;;23.70;59.00;;;;;;5034177;28;20451;-75
2023/04/30 03:33:19;;;;;;;1.87;1.77;;;23.70;59.00;;;;;;5034296;28;20480;-77
2023/04/30 03:35:48;;;;;;;1.83;1.73;;;23.70;59.00;;;;;;5034092;28;20458;-76
2023/04/30 03:38:16;;;;;;;1.47;1.37;;;23.70;59.00;;;;;;5032561;28;20514;-76
2023/04/30 03:40:44;;;;;;;2.20;2.00;;;23.70;59.00;;;;;;5016527;28;20867;-82
2023/04/30 03:43:14;;;;;;;1.70;1.60;;;23.70;59.00;;;;;;5033599;28;20460;-76
2023/04/30 03:45:42;;;;;;;1.80;1.70;;;23.70;59.10;;;;;;5016278;28;20464;-75
2023/04/30 03:48:11;;;;;;;1.77;1.67;;;23.70;59.10;;;;;;5033209;28;20477;-77
2023/04/30 03:50:39;;;;;;;1.60;1.50;;;23.70;59.10;;;;;;5016211;28;20527;-76
2023/04/30 03:53:07;;;;;;;1.70;1.60;;;23.70;59.10;;;;;;5015482;28;20851;-76
2023/04/30 03:55:36;;;;;;;1.73;1.63;;;23.70;59.10;;;;;;5016011;28;20456;-77
2023/04/30 03:58:04;;;;;;;2.00;1.90;;;23.70;59.10;;;;;;5032325;28;20487;-81
2023/04/30 04:00:34;;;;;;;1.80;1.70;;;23.70;59.10;;;;;;5015253;28;20515;-76
2023/04/30 04:03:03;;;;;;;2.13;2.03;;;23.70;59.10;;;;;;5015513;28;20462;-76
2023/04/30 04:05:32;;;;;;;1.77;1.67;;;23.70;59.10;;;;;;5014460;28;20535;-76
2023/04/30 04:08:00;;;;;;;1.87;1.77;;;23.70;59.10;;;;;;5014884;28;20472;-75
2023/04/30 04:10:29;;;;;;;4.10;1.73;;;23.70;59.10;;;;;;5015598;28;20462;-75
2023/04/30 04:12:57;;;;;;;1.80;1.70;;;23.80;59.10;;;;;;5012145;28;20448;-75
2023/04/30 04:15:26;;;;;;;2.50;1.93;;;23.80;59.00;;;;;;5032392;28;20526;-76
2023/04/30 04:17:55;;;;;;;1.80;1.70;;;23.80;59.00;;;;;;5028932;28;20459;-78
2023/04/30 04:20:24;;;;;;;1.87;1.77;;;23.80;59.00;;;;;;5015060;28;20922;-77
2023/04/30 04:22:52;;;;;;;1.90;1.80;;;23.80;58.90;;;;;;5011527;28;20480;-76
2023/04/30 04:25:23;;;;;;;2.10;2.00;;;23.80;58.90;;;;;;5015418;28;20465;-76
2023/04/30 04:27:52;;;;;;;2.30;2.10;;;23.80;58.90;;;;;;5012380;28;20828;-76
2023/04/30 04:30:20;;;;;;;2.00;1.90;;;23.80;58.80;;;;;;5014421;28;20473;-76
2023/04/30 04:32:52;;;;;;;2.00;1.90;;;23.80;58.80;;;;;;5015274;28;20873;-76
2023/04/30 04:35:22;;;;;;;1.83;1.73;;;23.80;58.80;;;;;;5033381;28;20426;-77
2023/04/30 04:37:50;;;;;;;1.67;1.57;;;23.80;58.80;;;;;;5013963;28;20517;-76
2023/04/30 04:40:18;;;;;;;1.97;1.87;;;23.80;58.80;;;;;;5032366;28;20542;-76
2023/04/30 04:42:50;;;;;;;1.53;1.43;;;23.80;58.80;;;;;;5032575;28;20484;-76
2023/04/30 04:45:19;;;;;;;1.67;1.57;;;23.80;58.80;;;;;;5014867;28;20503;-75
2023/04/30 04:47:49;;;;;;;1.93;1.83;;;23.80;58.80;;;;;;5014246;28;20484;-75
2023/04/30 04:50:18;;;;;;;1.80;1.70;;;23.80;58.80;;;;;;5014973;28;20546;-76
2023/04/30 04:52:48;;;;;;;2.20;2.10;;;23.80;58.70;;;;;;5013909;28;20904;-76
2023/04/30 04:55:16;;;;;;;2.00;1.90;;;23.80;58.60;;;;;;5015042;28;20481;-75
2023/04/30 04:57:44;;;;;;;2.27;2.17;;;23.80;58.60;;;;;;5031228;28;20473;-77
2023/04/30 05:00:13;;;;;;;2.10;2.00;;;23.70;58.50;;;;;;5011593;28;20540;-73
2023/04/30 05:02:41;;;;;;;1.87;1.77;;;23.70;58.50;;;;;;5026914;28;20571;-73
2023/04/30 05:05:10;;;;;;;2.40;2.27;;;23.70;58.50;;;;;;5011896;28;20831;-81
2023/04/30 05:07:39;;;;;;;1.83;1.73;;;23.70;58.60;;;;;;5033131;28;20977;-81
2023/04/30 05:10:10;;;;;;;2.13;1.97;;;23.70;58.70;;;;;;5013613;28;20460;-80
2023/04/30 05:12:38;;;;;;;1.93;1.80;;;23.70;58.80;;;;;;5014561;28;20868;-80
2023/04/30 05:15:07;;;;;;;2.33;2.23;;;23.60;58.80;;;;;;5032167;28;20450;-80
2023/04/30 05:17:36;;;;;;;1.90;1.80;;;23.60;58.90;;;;;;5011816;28;20457;-79
2023/04/30 05:20:06;;;;;;;2.30;2.20;;;23.60;58.90;;;;;;5031182;28;21052;-83
2023/04/30 05:22:34;;;;;;;2.73;2.57;;;23.60;58.90;;;;;;5021960;28;20453;-84
2023/04/30 05:25:02;;;;;;;2.80;2.17;;;23.60;59.00;;;;;;5024328;28;20547;-84
2023/04/30 05:27:32;;;;;;;2.60;2.17;;;23.60;59.10;;;;;;5030962;28;20512;-80
2023/04/30 05:30:00;;;;;;;3.03;2.83;;;23.60;59.10;;;;;;5025676;28;20548;-80
2023/04/30 05:32:29;;;;;;;2.23;2.00;;;23.60;59.10;;;;;;5030867;28;20464;-81
2023/04/30 05:34:58;;;;;;;2.03;1.93;;;23.60;59.10;;;;;;5037292;28;20460;-80
2023/04/30 05:37:26;;;;;;;2.83;2.63;;;23.60;59.10;;;;;;5030781;28;20507;-81
2023/04/30 05:39:54;;;;;;;2.00;1.90;;;23.60;59.10;;;;;;5028239;28;20441;-81
2023/04/30 05:42:23;;;;;;;2.43;2.27;;;23.60;59.10;;;;;;5030825;28;20485;-82
2023/04/30 05:44:52;;;;;;;2.30;2.20;;;23.60;59.10;;;;;;5031065;28;21024;-83
2023/04/30 05:47:21;;;;;;;1.83;1.73;;;23.60;59.10;;;;;;5033643;28;20467;-81
2023/04/30 05:49:49;;;;;;;2.47;2.33;;;23.60;59.10;;;;;;5031292;28;20548;-81
2023/04/30 05:52:17;;;;;;;4.80;2.90;;;23.60;59.10;;;;;;5035490;28;20516;-80
2023/04/30 05:54:47;;;;;;;2.00;1.90;;;23.60;59.10;;;;;;5035359;28;20459;-84
2023/04/30 05:57:17;;;;;;;2.63;2.43;;;23.60;59.10;;;;;;5024166;28;20497;-80
2023/04/30 05:59:45;;;;;;;2.30;2.10;;;23.70;59.10;;;;;;5029315;28;20526;-80
2023/04/30 06:02:15;;;;;;;2.90;2.17;;;23.70;59.10;;;;;;5021250;28;20490;-79
2023/04/30 06:04:43;;;;;;;2.60;2.40;;;23.70;59.10;;;;;;5031088;28;20445;-79
2023/04/30 06:07:12;;;;;;;2.23;1.90;;;23.70;59.10;;;;;;5031016;28;20921;-79
2023/04/30 06:09:40;;;;;;;3.00;2.70;;;23.70;59.10;;;;;;5029262;28;20509;-81
2023/04/30 06:12:08;;;;;;;2.67;2.40;;;23.70;59.10;;;;;;5031178;28;20460;-80
2023/04/30 06:14:36;;;;;;;3.00;2.77;;;23.70;59.10;;;;;;5028121;28;20992;-80
2023/04/30 06:17:05;;;;;;;2.73;2.37;;;23.70;59.10;;;;;;5030755;28;20461;-80
2023/04/30 06:19:34;;;;;;;2.40;2.20;;;23.70;59.10;;;;;;5029007;28;20485;-81
2023/04/30 06:22:03;;;;;;;2.40;2.10;;;23.70;59.10;;;;;;5028562;28;20457;-80
2023/04/30 06:24:31;;;;;;;4.37;2.80;;;23.70;59.10;;;;;;5032013;28;20430;-80
2023/04/30 06:27:00;;;;;;;3.10;2.30;;;23.70;59.00;;;;;;5030958;28;20953;-80
2023/04/30 06:29:28;;;;;;;2.37;2.17;;;23.80;59.00;;;;;;5033145;28;20983;-80
2023/04/30 06:31:56;;;;;;;2.27;2.17;;;23.80;59.00;;;;;;5034996;28;20480;-81
2023/04/30 06:34:24;;;;;;;2.00;1.90;;;23.80;59.00;;;;;;5035365;28;20472;-82
2023/04/30 06:36:54;;;;;;;2.07;1.97;;;23.80;58.90;;;;;;5033099;28;20487;-81
2023/04/30 06:39:22;;;;;;;2.03;1.93;;;23.80;58.90;;;;;;5028831;28;20490;-82
2023/04/30 06:41:50;;;;;;;2.47;2.10;;;23.80;58.90;;;;;;5024461;28;20463;-82
2023/04/30 06:44:19;;;;;;;2.40;2.20;;;23.80;58.90;;;;;;5034190;28;21014;-85
2023/04/30 06:46:47;;;;;;;2.87;2.67;;;23.80;58.90;;;;;;5027357;28;21020;-82
2023/04/30 06:49:15;;;;;;;2.63;2.20;;;23.80;58.90;;;;;;5026391;28;20569;-81
2023/04/30 06:51:43;;;;;;;2.90;2.70;;;23.80;58.90;;;;;;5031026;28;20461;-82
2023/04/30 06:54:13;;;;;;;3.00;2.80;;;23.80;58.90;;;;;;5023221;28;20475;-81
2023/04/30 06:56:42;;;;;;;2.47;2.20;;;23.80;58.90;;;;;;5006202;28;20486;-82
2023/04/30 06:59:11;;;;;;;2.83;2.10;;;23.80;58.80;;;;;;5032815;28;20820;-81
2023/04/30 07:01:39;;;;;;;2.50;2.30;;;23.80;58.90;;;;;;5027540;28;20961;-80
2023/04/30 07:04:08;;;;;;;2.23;2.13;;;23.80;58.90;;;;;;5033188;28;21151;-80
2023/04/30 07:06:36;;;;;;;2.73;2.53;;;23.80;58.90;;;;;;5032163;28;20455;-80
2023/04/30 07:09:04;;;;;;;2.40;2.20;;;23.80;58.90;;;;;;5031881;28;20552;-79
2023/04/30 07:11:34;;;;;;;2.00;1.90;;;23.80;58.90;;;;;;5032516;28;20468;-80
2023/04/30 07:14:02;;;;;;;2.60;2.37;;;23.80;58.90;;;;;;5029871;28;20991;-81
2023/04/30 07:16:32;;;;;;;3.07;2.87;;;23.80;58.90;;;;;;5027236;28;20450;-80
2023/04/30 07:19:01;;;;;;;2.30;2.20;;;23.80;58.90;;;;;;5024273;28;20521;-80
2023/04/30 07:21:31;;;;;;;2.87;2.67;;;23.80;58.80;;;;;;5030808;28;20463;-81
2023/04/30 07:23:59;;;;;;;2.90;2.70;;;23.80;58.80;;;;;;5029634;28;20456;-81
2023/04/30 07:26:28;;;;;;;3.27;2.60;;;23.80;58.80;;;;;;5028244;28;20559;-81
2023/04/30 07:28:57;;;;;;;3.77;3.40;;;23.90;58.80;;;;;;5029718;28;20482;-81
2023/04/30 07:31:26;;;;;;;5.23;2.27;;;23.90;58.80;;;;;;5031810;28;20484;-79
2023/04/30 07:33:54;;;;;;;3.10;2.80;;;23.90;58.80;;;;;;5029760;28;20468;-79
2023/04/30 07:36:23;;;;;;;2.40;2.30;;;23.90;58.80;;;;;;5030814;28;20529;-85
2023/04/30 07:38:51;;;;;;;2.80;2.60;;;23.90;58.80;;;;;;5024056;28;20503;-79
2023/04/30 07:41:20;;;;;;;3.23;2.43;;;23.90;59.00;;;;;;5033040;28;20494;-79
2023/04/30 07:43:48;;;;;;;2.90;2.67;;;23.90;59.20;;;;;;5032255;28;20491;-78
2023/04/30 07:46:18;;;;;;;2.60;2.40;;;24.00;59.40;;;;;;5032525;28;20461;-83
2023/04/30 07:48:48;;;;;;;2.53;2.43;;;24.00;59.50;;;;;;5024690;28;20569;-80
2023/04/30 07:51:16;;;;;;;2.60;2.40;;;24.00;59.60;;;;;;5032775;28;20538;-80
2023/04/30 07:53:45;;;;;;;3.53;3.23;;;24.00;59.70;;;;;;5029716;28;20465;-79
2023/04/30 07:56:14;;;;;;;3.87;2.80;;;24.00;59.60;;;;;;5030924;28;21076;-79
2023/04/30 07:58:42;;;;;;;3.30;3.00;;;24.10;59.70;;;;;;5031038;28;20545;-79
2023/04/30 08:01:10;;;;;;;4.20;3.60;;;24.10;59.70;;;;;;5030415;28;20471;-78
2023/04/30 08:03:40;;;;;;;2.67;2.47;;;24.10;59.70;;;;;;5031360;28;20553;-78
2023/04/30 08:06:08;;;;;;;2.80;2.60;;;24.10;59.80;;;;;;5030803;28;20477;-77
2023/04/30 08:08:36;;;;;;;3.00;2.80;;;24.10;59.80;;;;;;5027445;28;20475;-77
2023/04/30 08:11:05;;;;;;;3.27;2.97;;;24.10;59.70;;;;;;5015484;28;20536;-79
2023/04/30 08:13:33;;;;;;;2.93;2.73;;;24.20;59.70;;;;;;5033074;28;21026;-78
2023/04/30 08:16:01;;;;;;;2.60;2.40;;;24.20;59.80;;;;;;5031087;28;20450;-85
2023/04/30 08:18:30;;;;;;;2.90;2.60;;;24.20;59.70;;;;;;5031962;28;20791;-80
2023/04/30 08:21:00;;;;;;;3.30;3.10;;;24.20;59.80;;;;;;5032517;28;20924;-80
2023/04/30 08:23:28;;;;;;;3.70;3.10;;;24.20;59.70;;;;;;5031778;28;20456;-76
2023/04/30 08:25:56;;;;;;;3.30;3.00;;;24.20;59.70;;;;;;5013689;28;20451;-85
2023/04/30 08:28:25;;;;;;;2.87;2.67;;;24.20;59.80;;;;;;5029186;28;20459;-82
2023/04/30 08:30:53;;;;;;;3.50;3.20;;;24.20;59.80;;;;;;5029185;28;20479;-86
2023/04/30 08:33:21;;;;;;;3.63;3.33;;;24.20;59.70;;;;;;5028864;28;20546;-84
2023/04/30 08:35:49;;;;;;;3.13;2.80;;;24.20;59.70;;;;;;5031679;28;20444;-82
2023/04/30 08:38:19;;;;;;;3.63;2.60;;;24.20;59.70;;;;;;5027603;28;20545;-83
2023/04/30 08:40:57;;;;;;;9.37;2.93;;;24.20;59.70;;;;;;5029672;28;20851;-82
2023/04/30 08:43:25;;;;;;;4.90;2.90;;;24.20;59.70;;;;;;5031442;28;20484;-83
2023/04/30 08:45:54;;;;;;;7.00;3.07;;;24.20;59.70;;;;;;5029552;28;20482;-87
2023/04/30 08:48:25;;;;;;;2.90;2.70;;;24.20;59.70;;;;;;5029979;28;20502;-84
2023/04/30 08:50:53;;;;;;;4.33;3.00;;;24.20;59.70;;;;;;5014753;28;20524;-84
2023/04/30 08:53:23;;;;;;;2.90;2.60;;;24.20;59.70;;;;;;5019657;28;20497;-84
2023/04/30 08:55:52;;;;;;;3.50;3.20;;;24.20;59.80;;;;;;5031421;28;20457;-87
2023/04/30 08:58:20;;;;;;;4.50;2.80;;;24.20;59.80;;;;;;5022463;28;20522;-83
2023/04/30 09:00:48;;;;;;;2.70;2.47;;;24.20;59.70;;;;;;5031278;28;20492;-83
2023/04/30 09:03:17;;;;;;;3.50;3.20;;;24.20;59.80;;;;;;5031331;28;20542;-86
2023/04/30 09:05:45;;;;;;;4.30;3.00;;;24.20;59.70;;;;;;5030976;28;20471;-86
2023/04/30 09:08:18;;;;;;;4.27;2.77;;;24.30;59.70;;;;;;5012585;28;20797;-83
2023/04/30 09:10:48;;;;;;;4.50;2.50;;;24.30;59.70;;;;;;5030726;28;20510;-83
2023/04/30 09:13:16;;;;;;;3.60;2.87;;;24.20;59.70;;;;;;5029826;28;20455;-83
2023/04/30 09:15:45;;;;;;;4.40;2.93;;;24.30;59.70;;;;;;5029835;28;20488;-82
2023/04/30 09:18:16;;;;;;;3.40;3.10;;;24.30;59.70;;;;;;5025307;28;20500;-82
2023/04/30 09:20:55;;;;;;;2.53;2.43;;;24.30;59.70;;;;;;5023075;28;20457;-87
2023/04/30 09:23:24;;;;;;;2.90;2.70;;;24.30;59.70;;;;;;5028638;28;20487;-85
2023/04/30 09:25:54;;;;;;;5.03;3.00;;;24.30;59.60;;;;;;5026761;28;20474;-82
2023/04/30 09:28:24;;;;;;;2.63;2.33;;;24.30;59.60;;;;;;5025257;28;20538;-81
2023/04/30 09:30:52;;;;;;;5.40;2.37;;;24.30;59.50;;;;;;5026171;28;20483;-82
2023/04/30 09:33:21;;;;;;;4.70;2.70;;;24.30;59.50;;;;;;5029185;28;20466;-82
2023/04/30 09:35:49;;;;;;;3.00;2.80;;;24.40;59.50;;;;;;5030996;28;20464;-83
2023/04/30 09:38:28;;;;;;;6.93;2.77;;;24.40;59.50;;;;;;5025055;28;20495;-82
2023/04/30 09:40:59;;;;;;;3.43;2.53;;;24.30;59.50;;;;;;5026834;28;20518;-79
2023/04/30 09:43:28;;;;;;;2.47;2.27;;;24.30;59.50;;;;;;5029708;28;20492;-73
2023/04/30 09:45:58;;;;;;;3.33;2.60;;;24.40;59.50;;;;;;5030317;28;20448;-76
2023/04/30 09:48:28;;;;;;;3.27;2.70;;;24.40;59.50;;;;;;5008758;28;20895;-74
2023/04/30 09:50:56;;;;;;;2.67;2.47;;;24.40;59.50;;;;;;5022984;28;20515;-74
2023/04/30 09:53:24;;;;;;;2.50;2.30;;;24.40;59.40;;;;;;5027638;28;20455;-74
2023/04/30 09:55:53;;;;;;;3.60;3.03;;;24.40;59.30;;;;;;5027886;28;20970;-74
2023/04/30 09:58:28;;;;;;;2.90;2.47;;;24.40;59.20;;;;;;5026293;28;20971;-82
2023/04/30 10:00:59;;;;;;;3.70;3.00;;;24.40;59.20;;;;;;5028452;28;20450;-83
2023/04/30 10:03:27;;;;;;;2.50;2.40;;;24.40;59.10;;;;;;5021664;28;20539;-83
2023/04/30 10:05:56;;;;;;;2.03;1.83;;;24.40;59.10;;;;;;5030939;28;20467;-86
2023/04/30 10:08:27;;;;;;;2.40;2.20;;;24.50;59.10;;;;;;5026209;28;20830;-83
2023/04/30 10:11:00;;;;;;;2.83;2.23;;;24.50;59.20;;;;;;5025848;28;20530;-84
2023/04/30 10:13:34;;;;;;;3.57;2.40;;;24.40;59.20;;;;;;5026885;28;20493;-78
2023/04/30 10:16:11;;;;;;;2.37;2.27;;;24.40;59.30;;;;;;5027904;28;20505;-82
2023/04/30 10:18:43;;;;;;;2.50;2.30;;;24.40;59.40;;;;;;5029686;28;20457;-83
2023/04/30 10:21:14;;;;;;;2.30;2.20;;;24.40;59.40;;;;;;5029337;28;20554;-82
2023/04/30 10:23:43;;;;;;;3.20;2.50;;;24.40;59.40;;;;;;5030646;28;20504;-82
2023/04/30 10:26:12;;;;;;;3.47;2.80;;;24.50;59.40;;;;;;5027045;28;20790;-82
2023/04/30 10:28:42;;;;;;;2.13;2.03;;;24.40;59.40;;;;;;5031378;28;20457;-83
2023/04/30 10:31:11;;;;;;;4.57;2.70;;;24.40;59.40;;;;;;5021173;28;20471;-82
2023/04/30 10:33:48;;;;;;;2.63;2.47;;;24.50;59.30;;;;;;5029475;28;20570;-82
2023/04/30 10:36:26;;;;;;;5.67;2.47;;;24.50;59.30;;;;;;5032489;28;20972;-83
2023/04/30 10:38:54;;;;;;;3.20;2.90;;;24.40;59.30;;;;;;5027913;28;20892;-84
2023/04/30 10:41:24;;;;;;;2.80;2.57;;;24.50;59.30;;;;;;5030045;28;20437;-85
2023/04/30 10:43:57;;;;;;;2.73;2.43;;;24.50;59.30;;;;;;5028180;28;20517;-83
2023/04/30 10:46:28;;;;;;;2.20;2.00;;;24.50;59.20;;;;;;5031730;28;20467;-83
2023/04/30 10:48:59;;;;;;;2.13;2.03;;;24.50;59.30;;;;;;5026171;28;20490;-82
2023/04/30 10:51:46;;;;;;;2.63;2.30;;;24.50;59.20;;;;;;5009488;28;20470;-84
2023/04/30 10:54:17;;;;;;;2.67;2.47;;;24.50;59.20;;;;;;5027118;28;20462;-85
2023/04/30 10:56:47;;;;;;;2.03;1.83;;;24.50;59.20;;;;;;5027155;28;20513;-84
2023/04/30 10:59:17;;;;;;;5.60;3.07;;;24.40;59.20;;;;;;5029414;28;20460;-83
2023/04/30 11:02:06;;;;;;;2.73;2.63;;;24.40;59.20;;;;;;5012446;28;20576;-82
2023/04/30 11:04:34;;;;;;;3.47;3.17;;;24.50;59.20;;;;;;5019770;28;20519;-83
2023/04/30 11:07:09;;;;;;;2.33;2.23;;;24.40;59.30;;;;;;5028762;28;20953;-82
2023/04/30 11:09:40;;;;;;;2.80;2.60;;;24.50;59.30;;;;;;5027938;28;20553;-86
2023/04/30 11:12:14;;;;;;;4.80;2.33;;;24.50;59.30;;;;;;5025260;28;20516;-82
2023/04/30 11:14:45;;;;;;;3.07;2.53;;;24.50;59.20;;;;;;5028571;28;20448;-86
2023/04/30 11:17:22;;;;;;;3.13;2.90;;;24.60;59.10;;;;;;5024982;28;20549;-85
2023/04/30 11:19:52;;;;;;;5.27;2.97;;;24.60;59.10;;;;;;5035413;28;20546;-84
2023/04/30 11:22:23;;;;;;;2.37;2.27;;;24.60;59.10;;;;;;5033609;28;20483;-84
2023/04/30 11:25:03;;;;;;;2.73;2.60;;;24.70;59.00;;;;;;5033288;28;20518;-82
2023/04/30 11:27:33;;;;;;;3.27;3.00;;;24.70;58.90;;;;;;5035143;28;20460;-85
2023/04/30 11:30:05;;;;;;;3.97;2.83;;;24.70;59.00;;;;;;5037684;28;20515;-84
2023/04/30 11:32:34;;;;;;;4.17;2.80;;;24.70;59.40;;;;;;5037594;28;20485;-88
2023/04/30 11:35:03;;;;;;;3.57;3.27;;;24.70;59.20;;;;;;5035139;28;20440;-88
2023/04/30 11:37:34;;;;;;;3.47;3.17;;;24.80;59.10;;;;;;5036133;28;20465;-88
2023/04/30 11:40:05;;;;;;;4.13;3.17;;;24.80;59.00;;;;;;5032686;28;20453;-87
2023/04/30 11:42:34;;;;;;;5.77;3.70;;;24.80;58.90;;;;;;5031434;28;20459;-87
2023/04/30 11:45:08;;;;;;;3.63;3.20;;;24.80;58.80;;;;;;5032230;28;20567;-86
2023/04/30 11:47:44;;;;;;;4.80;3.00;;;24.80;58.90;;;;;;5025869;28;20458;-86
2023/04/30 11:50:14;;;;;;;3.63;3.33;;;24.80;58.80;;;;;;5031058;28;20464;-87
2023/04/30 11:52:48;;;;;;;6.07;3.50;;;24.80;58.70;;;;;;5026652;28;20473;-87
2023/04/30 11:55:18;;;;;;;3.60;3.30;;;24.80;58.70;;;;;;5027021;28;20950;-89
2023/04/30 11:57:48;;;;;;;6.43;3.63;;;24.80;58.60;;;;;;5028888;28;20463;-87
2023/04/30 12:00:19;;;;;;;3.63;3.30;;;24.80;58.60;;;;;;5030777;28;20532;-85
2023/04/30 12:02:49;;;;;;;4.57;4.17;;;24.80;58.50;;;;;;5026020;28;20458;-89
2023/04/30 12:05:19;;;;;;;5.67;3.70;;;24.80;58.50;;;;;;5023933;28;20478;-86
2023/04/30 12:07:49;;;;;;;8.00;4.23;;;24.90;58.50;;;;;;5008401;28;20475;-84
2023/04/30 12:10:19;;;;;;;7.33;4.40;;;24.90;58.50;;;;;;5031656;28;20450;-87
2023/04/30 12:12:48;;;;;;;6.37;4.33;;;24.90;58.60;;;;;;5029977;28;20468;-86
2023/04/30 12:15:25;;;;;;;6.30;4.50;;;24.80;58.50;;;;;;5032348;28;20455;-87
2023/04/30 12:17:55;;;;;;;6.77;5.00;;;24.90;58.60;;;;;;5017870;28;20470;-87
2023/04/30 12:20:24;;;;;;;6.27;4.90;;;24.90;58.60;;;;;;5012617;28;20794;-87
2023/04/30 12:22:53;;;;;;;7.63;4.43;;;24.90;58.50;;;;;;5035668;28;20463;-87
2023/04/30 12:25:22;;;;;;;5.77;4.87;;;25.00;58.40;;;;;;5030749;28;20869;-86
2023/04/30 12:27:52;;;;;;;5.17;4.73;;;25.10;58.20;;;;;;5014790;28;20851;-86
2023/04/30 12:30:24;;;;;;;7.00;5.20;;;25.20;58.10;;;;;;5029678;28;20535;-86
2023/04/30 12:32:57;;;;;;;8.53;5.17;;;25.30;57.90;;;;;;5036416;28;20690;-88
2023/04/30 12:35:29;;;;;;;7.13;5.73;;;25.30;57.80;;;;;;5033685;28;20457;-87
2023/04/30 12:38:03;;;;;;;6.20;5.60;;;25.40;57.70;;;;;;5031807;28;20491;-87
2023/04/30 12:40:31;;;;;;;6.70;5.07;;;25.40;57.60;;;;;;5027218;28;20590;-87
2023/04/30 12:43:01;;;;;;;7.03;6.30;;;25.40;57.60;;;;;;5026699;28;20473;-88
2023/04/30 12:45:47;;;;;;;6.10;5.50;;;25.40;57.70;;;;;;5024307;28;20471;-87
2023/04/30 12:48:16;;;;;;;8.43;6.90;;;25.40;57.60;;;;;;5030794;28;20465;-89
2023/04/30 12:50:49;;;;;;;6.17;5.67;;;25.40;57.70;;;;;;5032187;28;20443;-89
2023/04/30 12:53:24;;;;;;;8.47;7.33;;;25.40;57.70;;;;;;5027281;28;20471;-85
2023/04/30 12:56:09;;;;;;;6.47;5.90;;;25.40;57.80;;;;;;5026613;28;20462;-85
2023/04/30 12:58:38;;;;;;;7.23;6.47;;;25.40;57.70;;;;;;5026651;28;20457;-85
2023/04/30 13:01:12;;;;;;;7.87;6.03;;;25.40;57.80;;;;;;5027680;28;20495;-90
2023/04/30 13:03:41;;;;;;;6.23;5.63;;;25.40;57.80;;;;;;5028846;28;20970;-89